Time;durP1;ratioP1;P1;durP2;ratioP2;P2;SDS_P1;SDS_P2;PMS_P1;PMS_P2;Temp;Humidity;BMP_temperature;BMP_pressure;BME280_temperature;BME280_humidity;BME280_pressure;Samples;Min_cycle;Max_cycle;Signal;HPM_P1;HPM_P2
2022/06/15 00:00:30;;;;;;;6.88;3.50;;;;;;;;;;4936213;29;20070;-73
2022/06/15 00:02:57;;;;;;;8.88;3.47;;;;;;;;;;4938010;29;20091;-72
2022/06/15 00:05:23;;;;;;;8.07;3.45;;;;;;;;;;4937996;29;20040;-73
2022/06/15 00:07:49;;;;;;;6.75;3.50;;;;;;;;;;4936761;29;20409;-74
2022/06/15 00:10:15;;;;;;;9.40;3.53;;;;;;;;;;4936100;29;20520;-73
2022/06/15 00:12:41;;;;;;;11.60;3.80;;;;;;;;;;4936196;29;20048;-73
2022/06/15 00:15:08;;;;;;;6.78;3.33;;;;;;;;;;4938805;29;20050;-74
2022/06/15 00:17:34;;;;;;;8.23;3.67;;;;;;;;;;4938746;29;20131;-73
2022/06/15 00:20:00;;;;;;;9.77;3.50;;;;;;;;;;4940486;29;20034;-74
2022/06/15 00:22:26;;;;;;;6.22;3.40;;;;;;;;;;4938486;29;20031;-74
2022/06/15 00:24:52;;;;;;;7.63;3.53;;;;;;;;;;4937421;29;20063;-74
2022/06/15 00:27:18;;;;;;;8.15;3.85;;;;;;;;;;4938118;29;20497;-74
2022/06/15 00:29:44;;;;;;;9.77;3.63;;;;;;;;;;4939031;29;20482;-74
2022/06/15 00:32:11;;;;;;;5.38;3.28;;;;;;;;;;4941405;29;20028;-73
2022/06/15 00:34:38;;;;;;;7.07;3.50;;;;;;;;;;4934154;29;20774;-73
2022/06/15 00:37:05;;;;;;;7.68;3.60;;;;;;;;;;4919171;29;20040;-74
2022/06/15 00:39:32;;;;;;;8.93;3.28;;;;;;;;;;4919427;29;20024;-74
2022/06/15 00:41:59;;;;;;;6.90;3.58;;;;;;;;;;4919316;29;20431;-74
2022/06/15 00:44:25;;;;;;;6.90;3.45;;;;;;;;;;4918036;29;20488;-73
2022/06/15 00:47:00;;;;;;;6.00;3.33;;;;;;;;;;4917672;29;20478;-73
2022/06/15 00:49:29;;;;;;;8.25;3.40;;;;;;;;;;4930278;29;20402;-73
2022/06/15 00:51:58;;;;;;;5.97;3.15;;;;;;;;;;4919909;29;20106;-74
2022/06/15 00:54:24;;;;;;;8.80;3.17;;;;;;;;;;4917783;29;20115;-73
2022/06/15 00:56:51;;;;;;;5.50;3.33;;;;;;;;;;4919025;29;20093;-74
2022/06/15 00:59:24;;;;;;;7.53;3.65;;;;;;;;;;4917936;29;20088;-74
2022/06/15 01:01:50;;;;;;;7.27;3.77;;;;;;;;;;4906064;29;20040;-73
2022/06/15 01:04:19;;;;;;;6.45;3.63;;;;;;;;;;4917197;29;20285;-72
2022/06/15 01:07:00;;;;;;;6.45;3.38;;;;;;;;;;4919505;29;20391;-73
2022/06/15 01:09:31;;;;;;;8.20;3.50;;;;;;;;;;4917382;29;20060;-74
2022/06/15 01:12:15;;;;;;;8.88;3.47;;;;;;;;;;4919878;29;20131;-74
2022/06/15 01:14:44;;;;;;;7.32;3.60;;;;;;;;;;4914975;29;20044;-74
2022/06/15 01:17:11;;;;;;;7.20;3.72;;;;;;;;;;4919813;29;20028;-73
2022/06/15 01:19:55;;;;;;;5.20;3.10;;;;;;;;;;4919389;29;20112;-73
2022/06/15 01:22:30;;;;;;;6.38;3.40;;;;;;;;;;4918756;29;20035;-74
2022/06/15 01:25:05;;;;;;;8.55;3.40;;;;;;;;;;4918115;29;20032;-73
2022/06/15 01:27:50;;;;;;;15.35;3.50;;;;;;;;;;4923245;29;20144;-74
2022/06/15 01:30:21;;;;;;;17.63;5.22;;;;;;;;;;4923332;29;20067;-72
2022/06/15 01:32:47;;;;;;;11.05;3.97;;;;;;;;;;4918596;29;20028;-73
2022/06/15 01:35:25;;;;;;;10.20;3.60;;;;;;;;;;4926334;29;20383;-73
2022/06/15 01:38:03;;;;;;;8.50;3.60;;;;;;;;;;4937361;29;20056;-73
2022/06/15 01:40:34;;;;;;;8.07;3.67;;;;;;;;;;4935727;29;20035;-73
2022/06/15 01:43:03;;;;;;;7.82;3.75;;;;;;;;;;4935807;29;20035;-74
2022/06/15 01:45:32;;;;;;;6.88;3.60;;;;;;;;;;4936796;29;20034;-73
2022/06/15 01:48:00;;;;;;;10.02;3.80;;;;;;;;;;4937925;29;20086;-72
2022/06/15 01:50:32;;;;;;;8.77;3.53;;;;;;;;;;4941527;29;20058;-74
2022/06/15 01:53:19;;;;;;;6.35;3.58;;;;;;;;;;4937973;29;20038;-72
2022/06/15 01:55:45;;;;;;;8.55;3.90;;;;;;;;;;4933130;29;20038;-72
2022/06/15 01:58:13;;;;;;;9.10;4.00;;;;;;;;;;4940980;29;20032;-74
2022/06/15 02:00:40;;;;;;;6.38;3.50;;;;;;;;;;4939642;29;20087;-74
2022/06/15 02:03:26;;;;;;;6.47;3.67;;;;;;;;;;4940263;29;20054;-74
2022/06/15 02:05:52;;;;;;;7.55;4.00;;;;;;;;;;4941239;29;20027;-73
2022/06/15 02:08:22;;;;;;;7.20;3.42;;;;;;;;;;4940388;29;20107;-72
2022/06/15 02:10:57;;;;;;;6.10;3.67;;;;;;;;;;4946395;29;20053;-73
2022/06/15 02:13:23;;;;;;;8.52;3.80;;;;;;;;;;4938837;29;20069;-74
2022/06/15 02:15:52;;;;;;;9.23;3.53;;;;;;;;;;4941947;29;20023;-73
2022/06/15 02:18:19;;;;;;;7.40;3.88;;;;;;;;;;4941349;29;20031;-74
2022/06/15 02:20:48;;;;;;;8.65;3.90;;;;;;;;;;4938015;29;20028;-74
2022/06/15 02:23:16;;;;;;;6.85;3.45;;;;;;;;;;4940498;29;20020;-73
2022/06/15 02:25:45;;;;;;;7.65;3.65;;;;;;;;;;4941119;29;20020;-74
2022/06/15 02:28:13;;;;;;;5.82;3.70;;;;;;;;;;4941888;29;20036;-73
2022/06/15 02:30:40;;;;;;;10.82;3.20;;;;;;;;;;4938180;29;20062;-73
2022/06/15 02:33:33;;;;;;;7.97;4.10;;;;;;;;;;4941472;29;20063;-75
2022/06/15 02:36:00;;;;;;;5.22;3.50;;;;;;;;;;4935262;29;20431;-73
2022/06/15 02:38:26;;;;;;;6.28;3.60;;;;;;;;;;4939305;29;20035;-73
2022/06/15 02:40:52;;;;;;;5.40;3.42;;;;;;;;;;4939718;29;20023;-74
2022/06/15 02:43:20;;;;;;;8.40;3.70;;;;;;;;;;4941080;29;20059;-74
2022/06/15 02:45:47;;;;;;;5.32;3.20;;;;;;;;;;4940707;29;20035;-74
2022/06/15 02:48:14;;;;;;;10.75;4.13;;;;;;;;;;4941618;29;20028;-74
2022/06/15 02:50:46;;;;;;;8.05;3.53;;;;;;;;;;4942305;29;20059;-74
2022/06/15 02:53:15;;;;;;;6.45;3.60;;;;;;;;;;4942014;29;20047;-73
2022/06/15 02:55:41;;;;;;;5.00;3.30;;;;;;;;;;4922517;29;20803;-74
2022/06/15 02:58:09;;;;;;;7.78;3.63;;;;;;;;;;4941364;29;20027;-74
2022/06/15 03:00:36;;;;;;;5.95;3.85;;;;;;;;;;4944043;29;20024;-74
2022/06/15 03:03:03;;;;;;;5.70;3.72;;;;;;;;;;4946061;29;20060;-74
2022/06/15 03:05:29;;;;;;;4.82;3.38;;;;;;;;;;4941116;29;20044;-74
2022/06/15 03:07:55;;;;;;;7.72;3.25;;;;;;;;;;4942081;29;20063;-74
2022/06/15 03:10:21;;;;;;;11.75;4.18;;;;;;;;;;4940726;29;20027;-74
2022/06/15 03:12:48;;;;;;;8.07;3.65;;;;;;;;;;4941327;29;20477;-74
2022/06/15 03:15:14;;;;;;;7.45;4.07;;;;;;;;;;4941691;29;20038;-73
2022/06/15 03:17:40;;;;;;;7.60;3.90;;;;;;;;;;4939458;29;20474;-73
2022/06/15 03:20:06;;;;;;;7.15;3.80;;;;;;;;;;4941871;29;20177;-74
2022/06/15 03:22:36;;;;;;;12.73;4.10;;;;;;;;;;4945316;29;20031;-74
2022/06/15 03:25:02;;;;;;;11.52;4.20;;;;;;;;;;4938149;29;20027;-73
2022/06/15 03:27:28;;;;;;;9.43;4.03;;;;;;;;;;4939360;29;20028;-73
2022/06/15 03:29:54;;;;;;;9.82;3.92;;;;;;;;;;4939420;29;20035;-74
2022/06/15 03:32:20;;;;;;;8.80;3.80;;;;;;;;;;4938835;29;20050;-73
2022/06/15 03:34:46;;;;;;;11.05;3.83;;;;;;;;;;4938261;29;20055;-73
2022/06/15 03:37:12;;;;;;;6.53;3.72;;;;;;;;;;4939103;29;20092;-74
2022/06/15 03:39:38;;;;;;;9.57;3.78;;;;;;;;;;4938973;29;20533;-73
2022/06/15 03:42:14;;;;;;;7.00;3.58;;;;;;;;;;4939872;29;20031;-74
2022/06/15 03:44:41;;;;;;;9.32;3.90;;;;;;;;;;4921592;29;20075;-73
2022/06/15 03:47:17;;;;;;;9.73;3.70;;;;;;;;;;4938864;29;20131;-73
2022/06/15 03:49:50;;;;;;;7.50;3.67;;;;;;;;;;4938524;29;20131;-74
2022/06/15 03:52:16;;;;;;;7.43;3.60;;;;;;;;;;4938969;29;20059;-73
2022/06/15 03:54:42;;;;;;;7.45;3.80;;;;;;;;;;4938274;29;20497;-73
2022/06/15 03:57:10;;;;;;;10.20;4.00;;;;;;;;;;4938152;29;20035;-73
2022/06/15 03:59:36;;;;;;;10.60;4.53;;;;;;;;;;4940885;29;20024;-76
2022/06/15 04:02:02;;;;;;;10.60;4.05;;;;;;;;;;4938673;29;20158;-74
2022/06/15 04:04:28;;;;;;;7.38;3.70;;;;;;;;;;4938621;29;20038;-74
2022/06/15 04:06:54;;;;;;;12.27;4.38;;;;;;;;;;4938711;29;20039;-73
2022/06/15 04:09:23;;;;;;;7.47;3.90;;;;;;;;;;4937626;29;20035;-73
2022/06/15 04:11:59;;;;;;;10.73;4.28;;;;;;;;;;4938605;29;20037;-74
2022/06/15 04:14:31;;;;;;;9.43;3.97;;;;;;;;;;4931098;29;20075;-73
2022/06/15 04:17:01;;;;;;;9.35;3.88;;;;;;;;;;4939347;29;20390;-74
2022/06/15 04:19:29;;;;;;;8.48;4.18;;;;;;;;;;4938532;29;20038;-74
2022/06/15 04:21:57;;;;;;;9.95;4.47;;;;;;;;;;4939139;29;20028;-74
2022/06/15 04:24:24;;;;;;;25.52;16.20;;;;;;;;;;4939107;29;20035;-74
2022/06/15 04:26:51;;;;;;;26.90;16.05;;;;;;;;;;4941073;29;20027;-74
2022/06/15 04:29:18;;;;;;;15.50;10.20;;;;;;;;;;4940166;29;20083;-73
2022/06/15 04:31:44;;;;;;;12.15;5.80;;;;;;;;;;4938757;29;20401;-74
2022/06/15 04:34:11;;;;;;;12.48;5.07;;;;;;;;;;4939468;29;20039;-74
2022/06/15 04:36:39;;;;;;;14.25;4.63;;;;;;;;;;4940825;29;20051;-73
2022/06/15 04:39:06;;;;;;;9.50;4.35;;;;;;;;;;4939140;29;20028;-74
2022/06/15 04:41:36;;;;;;;12.32;4.50;;;;;;;;;;4939716;29;20035;-73
2022/06/15 04:44:04;;;;;;;13.50;4.45;;;;;;;;;;4938062;29;20031;-74
2022/06/15 04:46:32;;;;;;;16.02;4.57;;;;;;;;;;4938593;29;20016;-74
2022/06/15 04:49:00;;;;;;;8.82;4.15;;;;;;;;;;4939000;29;20039;-74
2022/06/15 04:51:29;;;;;;;11.68;4.28;;;;;;;;;;4921874;29;20059;-74
2022/06/15 04:53:56;;;;;;;10.75;3.70;;;;;;;;;;4938654;29;20442;-74
2022/06/15 04:56:23;;;;;;;8.13;3.60;;;;;;;;;;4938912;29;20122;-75
2022/06/15 04:59:10;;;;;;;9.70;4.30;;;;;;;;;;4933311;29;20479;-73
2022/06/15 05:01:37;;;;;;;28.10;4.97;;;;;;;;;;4945879;29;20044;-73
2022/06/15 05:04:03;;;;;;;14.05;4.78;;;;;;;;;;4946073;29;20053;-74
2022/06/15 05:06:37;;;;;;;14.55;4.88;;;;;;;;;;4942969;29;20032;-72
2022/06/15 05:09:15;;;;;;;12.65;4.28;;;;;;;;;;4941899;29;20042;-77
2022/06/15 05:11:41;;;;;;;9.13;3.88;;;;;;;;;;4945329;29;20486;-73
2022/06/15 05:14:07;;;;;;;13.52;4.65;;;;;;;;;;4934684;29;20478;-77
2022/06/15 05:16:33;;;;;;;8.73;3.97;;;;;;;;;;4937897;29;20096;-76
2022/06/15 05:19:00;;;;;;;13.50;3.78;;;;;;;;;;4938090;29;20095;-74
2022/06/15 05:21:27;;;;;;;18.48;4.43;;;;;;;;;;4932829;29;20373;-75
2022/06/15 05:23:53;;;;;;;8.30;4.35;;;;;;;;;;4933777;29;20091;-74
2022/06/15 05:26:24;;;;;;;10.23;4.38;;;;;;;;;;4935571;29;20028;-74
2022/06/15 05:28:50;;;;;;;6.78;3.70;;;;;;;;;;4935061;29;20055;-88
2022/06/15 05:31:18;;;;;;;9.30;3.70;;;;;;;;;;4934912;29;20022;-91
2022/06/15 05:33:44;;;;;;;12.75;3.97;;;;;;;;;;4934371;29;20118;-78
2022/06/15 05:36:12;;;;;;;6.63;3.45;;;;;;;;;;4931876;29;20054;-81
2022/06/15 05:38:39;;;;;;;10.23;3.63;;;;;;;;;;4933381;29;20478;-79
2022/06/15 05:41:05;;;;;;;10.27;3.35;;;;;;;;;;4935067;29;20110;-81
2022/06/15 05:43:32;;;;;;;7.80;3.53;;;;;;;;;;4930763;29;20040;-83
2022/06/15 05:45:59;;;;;;;6.80;3.40;;;;;;;;;;4931112;29;20036;-74
2022/06/15 05:48:26;;;;;;;8.88;4.00;;;;;;;;;;4932279;29;20038;-80
2022/06/15 05:50:52;;;;;;;8.90;3.80;;;;;;;;;;4932832;29;20091;-76
2022/06/15 05:53:18;;;;;;;9.00;3.40;;;;;;;;;;4933230;29;20035;-79
2022/06/15 05:55:44;;;;;;;9.20;3.28;;;;;;;;;;4931564;29;20038;-82
2022/06/15 05:58:10;;;;;;;8.35;4.03;;;;;;;;;;4927145;29;20051;-84
2022/06/15 06:00:38;;;;;;;7.32;3.40;;;;;;;;;;4929918;29;20047;-84
2022/06/15 06:03:04;;;;;;;5.05;3.30;;;;;;;;;;4932874;29;20238;-79
2022/06/15 06:05:30;;;;;;;9.70;3.60;;;;;;;;;;4930028;29;20040;-79
2022/06/15 06:07:56;;;;;;;8.80;3.22;;;;;;;;;;4932815;29;20051;-83
2022/06/15 06:10:22;;;;;;;5.80;3.28;;;;;;;;;;4931785;29;20040;-89
2022/06/15 06:12:49;;;;;;;7.80;3.42;;;;;;;;;;4935329;29;20110;-80
2022/06/15 06:15:15;;;;;;;7.13;3.28;;;;;;;;;;4934474;29;20067;-84
2022/06/15 06:17:41;;;;;;;7.72;2.65;;;;;;;;;;4933645;29;20504;-77
2022/06/15 06:20:08;;;;;;;5.25;2.67;;;;;;;;;;4933160;29;20031;-84
2022/06/15 06:22:34;;;;;;;8.00;2.88;;;;;;;;;;4936316;29;20087;-80
2022/06/15 06:25:00;;;;;;;6.53;3.20;;;;;;;;;;4933535;29;20035;-77
2022/06/15 06:27:26;;;;;;;12.65;2.95;;;;;;;;;;4926482;29;20038;-82
2022/06/15 06:29:52;;;;;;;8.10;2.97;;;;;;;;;;4932132;29;20482;-78
2022/06/15 06:32:18;;;;;;;6.93;2.80;;;;;;;;;;4932337;29;20040;-82
2022/06/15 06:34:45;;;;;;;5.95;3.00;;;;;;;;;;4932307;29;20039;-87
2022/06/15 06:37:12;;;;;;;4.95;2.83;;;;;;;;;;4931881;29;20045;-79
2022/06/15 06:39:39;;;;;;;5.95;2.50;;;;;;;;;;4933361;29;20020;-79
2022/06/15 06:42:05;;;;;;;7.53;3.10;;;;;;;;;;4935973;29;20035;-76
2022/06/15 06:44:31;;;;;;;5.53;2.85;;;;;;;;;;4937965;29;20031;-81
2022/06/15 06:46:57;;;;;;;7.45;2.75;;;;;;;;;;4936763;29;20063;-78
2022/06/15 06:49:24;;;;;;;5.90;2.92;;;;;;;;;;4926513;29;20098;-76
2022/06/15 06:51:50;;;;;;;6.43;2.72;;;;;;;;;;4936913;29;20024;-77
2022/06/15 06:54:18;;;;;;;10.13;2.75;;;;;;;;;;4931298;29;20122;-85
2022/06/15 06:56:44;;;;;;;8.38;3.13;;;;;;;;;;4935760;29;20035;-75
2022/06/15 06:59:11;;;;;;;7.88;3.17;;;;;;;;;;4934319;29;20031;-80
2022/06/15 07:01:39;;;;;;;5.75;2.90;;;;;;;;;;4932215;29;20489;-73
2022/06/15 07:04:06;;;;;;;13.82;4.28;;;;;;;;;;4936216;29;20397;-77
2022/06/15 07:06:32;;;;;;;12.18;3.35;;;;;;;;;;4930765;29;20142;-79
2022/06/15 07:08:58;;;;;;;15.13;3.30;;;;;;;;;;4937289;29;20024;-85
2022/06/15 07:11:24;;;;;;;12.50;3.33;;;;;;;;;;4933882;29;20054;-79
2022/06/15 07:13:51;;;;;;;8.23;3.33;;;;;;;;;;4934883;29;20043;-75
2022/06/15 07:16:19;;;;;;;9.68;3.20;;;;;;;;;;4935951;29;20027;-75
2022/06/15 07:18:46;;;;;;;11.18;3.40;;;;;;;;;;4928765;29;20034;-75
2022/06/15 07:21:14;;;;;;;29.30;5.03;;;;;;;;;;4929765;29;20032;-78
2022/06/15 07:23:41;;;;;;;41.13;6.18;;;;;;;;;;4933976;29;20099;-76
2022/06/15 07:26:10;;;;;;;268.45;27.02;;;;;;;;;;4936185;29;20035;-78
2022/06/15 07:28:36;;;;;;;499.77;59.17;;;;;;;;;;4935813;29;20030;-81
2022/06/15 07:31:02;;;;;;;34.47;6.40;;;;;;;;;;4934902;29;20043;-79
2022/06/15 07:33:28;;;;;;;57.05;8.93;;;;;;;;;;4932484;29;20374;-78
2022/06/15 07:35:54;;;;;;;18.15;3.85;;;;;;;;;;4924420;29;20059;-81
2022/06/15 07:38:20;;;;;;;8.18;3.03;;;;;;;;;;4925609;29;20036;-74
2022/06/15 07:40:47;;;;;;;50.55;7.97;;;;;;;;;;4916821;29;20359;-79
2022/06/15 07:43:13;;;;;;;18.77;4.10;;;;;;;;;;4919336;29;20055;-75
2022/06/15 07:45:39;;;;;;;3.90;2.50;;;;;;;;;;4915480;29;20032;-75
2022/06/15 07:50:50;;;;;;;28.40;5.13;;;;;;;;;;4916678;29;20513;-76
2022/06/15 07:53:16;;;;;;;8.55;2.90;;;;;;;;;;4915856;29;20430;-83
2022/06/15 07:55:43;;;;;;;13.57;3.55;;;;;;;;;;4916264;29;20083;-82
2022/06/15 07:58:10;;;;;;;55.90;8.85;;;;;;;;;;4924934;29;20028;-82
2022/06/15 08:00:37;;;;;;;351.23;40.47;;;;;;;;;;4916391;29;20034;-79
2022/06/15 08:03:04;;;;;;;465.65;57.60;;;;;;;;;;4914641;29;20056;-73
2022/06/15 08:05:31;;;;;;;84.50;10.82;;;;;;;;;;4916127;29;20024;-76
2022/06/15 08:07:58;;;;;;;212.50;25.40;;;;;;;;;;4920314;29;20036;-77
2022/06/15 08:10:45;;;;;;;5.72;2.40;;;;;;;;;;4914854;29;20035;-80
2022/06/15 08:13:11;;;;;;;49.53;6.97;;;;;;;;;;4923098;29;20035;-83
2022/06/15 08:15:38;;;;;;;80.45;11.60;;;;;;;;;;4919049;29;20050;-79
2022/06/15 08:18:06;;;;;;;4.30;2.20;;;;;;;;;;4905443;29;20051;-79
2022/06/15 08:20:37;;;;;;;13.52;3.83;;;;;;;;;;4915581;29;20394;-77
2022/06/15 08:23:08;;;;;;;7.63;2.92;;;;;;;;;;4914846;29;20028;-78
2022/06/15 08:25:35;;;;;;;16.02;3.13;;;;;;;;;;4916580;29;20424;-79
2022/06/15 08:28:02;;;;;;;4.63;2.35;;;;;;;;;;4915684;29;20063;-76
2022/06/15 08:30:29;;;;;;;13.77;4.25;;;;;;;;;;4915778;29;20111;-72
2022/06/15 08:32:55;;;;;;;198.32;17.17;;;;;;;;;;4917464;29;20036;-75
2022/06/15 08:35:21;;;;;;;22.10;3.63;;;;;;;;;;4914660;29;20051;-75
2022/06/15 08:37:47;;;;;;;11.40;2.65;;;;;;;;;;4916812;29;20028;-84
2022/06/15 08:40:14;;;;;;;8.23;3.03;;;;;;;;;;4915136;29;20474;-79
2022/06/15 08:42:46;;;;;;;9.55;2.95;;;;;;;;;;4915292;29;20099;-77
2022/06/15 08:45:30;;;;;;;9.70;2.30;;;;;;;;;;4912074;29;20036;-77
2022/06/15 08:48:09;;;;;;;8.52;2.47;;;;;;;;;;4913960;29;20481;-76
2022/06/15 08:50:45;;;;;;;14.77;3.35;;;;;;;;;;4917935;29;20032;-75
2022/06/15 08:53:30;;;;;;;9.73;2.60;;;;;;;;;;4911656;29;20040;-75
2022/06/15 08:56:14;;;;;;;6.18;2.20;;;;;;;;;;4914008;29;20071;-80
2022/06/15 08:58:41;;;;;;;9.25;2.50;;;;;;;;;;4913910;29;22356;-74
2022/06/15 09:01:16;;;;;;;9.10;2.75;;;;;;;;;;4895363;29;20033;-74
2022/06/15 09:03:42;;;;;;;10.00;2.88;;;;;;;;;;4913529;29;20078;-77
2022/06/15 09:06:21;;;;;;;5.13;2.55;;;;;;;;;;4913072;29;20069;-83
2022/06/15 09:08:58;;;;;;;18.75;3.05;;;;;;;;;;4908456;29;20036;-84
2022/06/15 09:11:34;;;;;;;7.75;2.55;;;;;;;;;;4911173;29;20179;-78
2022/06/15 09:14:06;;;;;;;9.75;2.33;;;;;;;;;;4915119;29;20044;-72
2022/06/15 09:16:45;;;;;;;13.17;2.47;;;;;;;;;;4914246;29;20027;-73
2022/06/15 09:19:13;;;;;;;79.90;7.45;;;;;;;;;;4909264;29;20024;-87
2022/06/15 09:21:41;;;;;;;26.58;3.97;;;;;;;;;;4913087;29;20035;-87
2022/06/15 09:24:07;;;;;;;20.17;3.47;;;;;;;;;;4913775;29;20135;-90
2022/06/15 09:26:41;;;;;;;7.97;2.33;;;;;;;;;;4913712;29;20027;-82
2022/06/15 09:29:11;;;;;;;11.23;2.47;;;;;;;;;;4913593;29;20027;-86
2022/06/15 09:31:56;;;;;;;5.68;2.22;;;;;;;;;;4913532;29;20043;-74
2022/06/15 09:34:32;;;;;;;5.28;2.42;;;;;;;;;;4913508;29;20175;-80
2022/06/15 09:36:58;;;;;;;7.05;2.30;;;;;;;;;;4933108;29;20051;-75
2022/06/15 09:39:26;;;;;;;7.80;2.30;;;;;;;;;;4934642;29;20516;-77
2022/06/15 09:41:58;;;;;;;5.80;2.20;;;;;;;;;;4933240;29;20036;-77
2022/06/15 09:44:32;;;;;;;4.68;2.10;;;;;;;;;;4916481;29;20130;-80
2022/06/15 09:46:58;;;;;;;5.18;2.20;;;;;;;;;;4934709;29;20501;-78
2022/06/15 09:49:27;;;;;;;7.93;2.45;;;;;;;;;;4935009;29;20518;-79
2022/06/15 09:52:08;;;;;;;4.78;2.20;;;;;;;;;;4933569;29;20024;-80
2022/06/15 09:54:42;;;;;;;7.40;2.40;;;;;;;;;;4932389;29;20035;-80
2022/06/15 09:57:09;;;;;;;5.90;2.50;;;;;;;;;;4932323;29;20024;-76
2022/06/15 09:59:35;;;;;;;12.60;2.92;;;;;;;;;;4932356;29;20426;-75
2022/06/15 10:02:04;;;;;;;9.68;2.72;;;;;;;;;;4927872;29;20032;-75
2022/06/15 10:04:32;;;;;;;5.32;2.08;;;;;;;;;;4930913;29;20035;-75
2022/06/15 10:07:00;;;;;;;5.88;2.58;;;;;;;;;;4931825;29;20034;-72
2022/06/15 10:09:28;;;;;;;7.53;2.30;;;;;;;;;;4932538;29;20090;-87
2022/06/15 10:14:43;;;;;;;12.20;3.00;;;;;;;;;;4936553;29;20132;-78
2022/06/15 10:17:25;;;;;;;5.47;2.47;;;;;;;;;;4934081;29;20027;-81
2022/06/15 10:19:53;;;;;;;4.18;2.33;;;;;;;;;;4934283;29;20110;-82
2022/06/15 10:22:28;;;;;;;8.35;2.30;;;;;;;;;;4935886;29;20028;-75
2022/06/15 10:25:00;;;;;;;6.53;2.30;;;;;;;;;;4935584;29;20028;-82
2022/06/15 10:27:29;;;;;;;5.55;2.20;;;;;;;;;;4935276;29;20028;-75
2022/06/15 10:30:13;;;;;;;6.05;2.42;;;;;;;;;;4936201;29;20042;-72
2022/06/15 10:32:55;;;;;;;6.60;2.33;;;;;;;;;;4927374;29;20506;-75
2022/06/15 10:35:21;;;;;;;9.10;2.50;;;;;;;;;;4931561;29;20047;-72
2022/06/15 10:37:53;;;;;;;4.78;1.98;;;;;;;;;;4936497;29;20082;-72
2022/06/15 10:40:22;;;;;;;8.77;2.28;;;;;;;;;;4936495;29;20035;-72
2022/06/15 10:42:54;;;;;;;4.75;1.92;;;;;;;;;;4935716;29;20027;-78
2022/06/15 10:45:23;;;;;;;54.92;4.75;;;;;;;;;;4936799;29;20130;-78
2022/06/15 10:47:52;;;;;;;8.88;2.40;;;;;;;;;;4935232;29;20032;-80
2022/06/15 10:50:22;;;;;;;6.60;2.20;;;;;;;;;;4935816;29;20044;-79
2022/06/15 10:52:51;;;;;;;5.38;2.35;;;;;;;;;;4936926;29;20098;-81
2022/06/15 11:04:03;;;;;;;6.75;2.00;;;;;;;;;;4935655;29;20042;-74
2022/06/15 11:06:36;;;;;;;5.90;2.15;;;;;;;;;;4934300;29;20560;-77
2022/06/15 11:09:03;;;;;;;7.10;2.40;;;;;;;;;;4935866;29;20031;-73
2022/06/15 11:11:29;;;;;;;12.23;3.00;;;;;;;;;;4935962;29;20078;-76
2022/06/15 11:13:57;;;;;;;7.70;2.60;;;;;;;;;;4934914;29;20071;-78
2022/06/15 11:19:20;;;;;;;5.03;2.13;;;;;;;;;;4937712;29;20046;-73
2022/06/15 11:21:49;;;;;;;7.18;2.45;;;;;;;;;;4936706;29;20371;-80
2022/06/15 11:24:22;;;;;;;34.45;4.28;;;;;;;;;;4937332;29;20106;-75
2022/06/15 11:27:01;;;;;;;5.55;2.53;;;;;;;;;;4937543;29;20019;-76
2022/06/15 11:29:46;;;;;;;6.90;2.65;;;;;;;;;;4937303;29;20087;-76
2022/06/15 11:32:24;;;;;;;6.60;2.00;;;;;;;;;;4934459;29;20122;-77
2022/06/15 11:35:08;;;;;;;6.55;2.72;;;;;;;;;;4936592;29;20095;-74
2022/06/15 11:37:53;;;;;;;6.75;2.33;;;;;;;;;;4933699;29;20032;-75
2022/06/15 11:40:38;;;;;;;10.13;2.78;;;;;;;;;;4936977;29;20505;-72
2022/06/15 11:43:11;;;;;;;11.60;2.30;;;;;;;;;;4937249;29;20035;-76
2022/06/15 11:45:54;;;;;;;4.10;2.20;;;;;;;;;;4936988;29;20031;-84
2022/06/15 11:48:29;;;;;;;7.03;2.40;;;;;;;;;;4932622;29;20024;-77
2022/06/15 11:51:05;;;;;;;6.43;2.40;;;;;;;;;;4936809;29;20024;-75
2022/06/15 11:53:40;;;;;;;6.43;2.50;;;;;;;;;;4951160;29;20058;-81
2022/06/15 11:56:11;;;;;;;6.65;2.00;;;;;;;;;;4938899;29;20562;-79
2022/06/15 11:58:40;;;;;;;8.73;2.60;;;;;;;;;;4936983;29;20114;-79
2022/06/15 12:01:10;;;;;;;5.43;2.58;;;;;;;;;;4936422;29;20070;-83
2022/06/15 12:03:36;;;;;;;3.63;1.85;;;;;;;;;;4936846;29;20020;-81
2022/06/15 12:06:05;;;;;;;5.55;2.28;;;;;;;;;;4935183;29;20039;-76
2022/06/15 12:08:38;;;;;;;7.68;2.45;;;;;;;;;;4936285;29;20035;-81
2022/06/15 12:11:05;;;;;;;;;;;;;;;;;;4937176;29;20035;-82
2022/06/15 12:13:40;;;;;;;177.35;17.60;;;;;;;;;;4936569;29;19918;-80
2022/06/15 12:16:06;;;;;;;169.32;16.83;;;;;;;;;;4936727;29;20067;-82
2022/06/15 12:18:38;;;;;;;88.22;10.07;;;;;;;;;;4936043;29;20028;-81
2022/06/15 12:21:07;;;;;;;41.85;4.90;;;;;;;;;;4927754;29;20032;-81
2022/06/15 12:23:33;;;;;;;93.47;11.30;;;;;;;;;;4935815;29;20469;-80
2022/06/15 12:26:18;;;;;;;25.60;3.83;;;;;;;;;;4936323;29;20490;-77
2022/06/15 12:29:01;;;;;;;43.95;6.43;;;;;;;;;;4936197;29;20023;-74
2022/06/15 12:31:45;;;;;;;35.35;6.88;;;;;;;;;;4936160;29;21166;-75
2022/06/15 12:34:14;;;;;;;44.80;7.25;;;;;;;;;;4930221;29;20043;-74
2022/06/15 12:37:09;;;;;;;5.55;2.00;;;;;;;;;;4936077;29;20083;-74
2022/06/15 12:39:57;;;;;;;20.40;3.28;;;;;;;;;;4877514;29;20493;-77
2022/06/15 12:42:23;;;;;;;30.23;4.75;;;;;;;;;;4890899;29;20084;-75
2022/06/15 12:44:56;;;;;;;6.97;2.45;;;;;;;;;;4872435;29;20040;-77
2022/06/15 12:47:24;;;;;;;11.85;2.70;;;;;;;;;;4876985;29;20073;-74
2022/06/15 12:49:58;;;;;;;16.45;4.25;;;;;;;;;;4877105;29;20518;-74
2022/06/15 12:52:32;;;;;;;12.65;2.90;;;;;;;;;;4877654;29;20194;-75
2022/06/15 12:55:17;;;;;;;10.48;2.42;;;;;;;;;;4877146;29;20079;-76
2022/06/15 12:57:54;;;;;;;8.13;2.95;;;;;;;;;;4877546;29;20048;-73
2022/06/15 13:00:23;;;;;;;9.25;2.75;;;;;;;;;;4872649;29;20029;-73
2022/06/15 13:02:49;;;;;;;8.23;2.90;;;;;;;;;;4876987;29;20442;-74
2022/06/15 13:05:19;;;;;;;4.70;2.25;;;;;;;;;;4877095;29;20128;-74
2022/06/15 13:08:05;;;;;;;18.85;3.83;;;;;;;;;;4877496;29;20112;-80
2022/06/15 13:10:32;;;;;;;12.88;2.58;;;;;;;;;;4876445;29;20543;-80
2022/06/15 13:13:02;;;;;;;14.25;2.70;;;;;;;;;;4876748;29;20033;-81
2022/06/15 13:15:31;;;;;;;37.28;4.47;;;;;;;;;;4893783;29;20077;-82
2022/06/15 13:18:14;;;;;;;26.02;4.00;;;;;;;;;;4934529;29;20560;-76
2022/06/15 13:20:46;;;;;;;22.13;3.25;;;;;;;;;;4935321;29;20035;-83
2022/06/15 13:26:17;;;;;;;4.40;2.03;;;;;;;;;;5253676;23;20053;-80
2022/06/15 13:29:04;;;;;;;6.07;2.05;;;;;;;;;;5011068;28;20030;-83
2022/06/15 13:31:53;;;;;;;8.50;2.30;;;;;;;;;;5013485;28;20041;-81
2022/06/15 13:34:32;;;;;;;15.82;2.67;;;;;;;;;;5007710;28;20046;-79
2022/06/15 13:37:10;;;;;;;6.30;2.17;;;;;;;;;;5029810;28;20025;-76
2022/06/15 13:39:42;;;;;;;6.30;2.45;;;;;;;;;;5027879;28;20073;-80
2022/06/15 13:42:21;;;;;;;8.23;2.65;;;;;;;;;;5025641;28;20203;-85
2022/06/15 13:44:54;;;;;;;5.40;2.17;;;;;;;;;;5027478;28;20421;-78
2022/06/15 13:47:23;;;;;;;4.70;2.30;;;;;;;;;;5030589;28;20029;-76
2022/06/15 13:49:51;;;;;;;4.22;2.10;;;;;;;;;;5035504;28;20049;-80
2022/06/15 13:52:29;;;;;;;5.43;2.20;;;;;;;;;;5033845;28;20026;-89
2022/06/15 13:54:55;;;;;;;11.32;2.88;;;;;;;;;;5033797;28;20490;-82
2022/06/15 13:57:39;;;;;;;5.13;2.05;;;;;;;;;;5036382;28;20544;-85
2022/06/15 14:00:15;;;;;;;7.00;1.80;;;;;;;;;;5014804;28;20040;-80
2022/06/15 14:03:00;;;;;;;7.10;2.08;;;;;;;;;;5034805;28;20112;-84
2022/06/15 14:05:29;;;;;;;5.85;2.08;;;;;;;;;;5022406;28;20060;-81
2022/06/15 14:08:04;;;;;;;6.05;2.22;;;;;;;;;;5030670;28;20031;-79
2022/06/15 14:10:41;;;;;;;8.82;2.40;;;;;;;;;;5032099;28;20101;-82
2022/06/15 14:13:16;;;;;;;4.60;2.20;;;;;;;;;;5017735;28;20116;-75
2022/06/15 14:16:02;;;;;;;4.05;2.17;;;;;;;;;;5033400;28;20076;-70
2022/06/15 14:18:37;;;;;;;6.93;2.88;;;;;;;;;;5033999;28;20095;-77
2022/06/15 14:21:24;;;;;;;4.22;2.38;;;;;;;;;;5027221;28;20101;-73
2022/06/15 14:23:52;;;;;;;5.82;2.25;;;;;;;;;;5023019;28;20038;-73
2022/06/15 14:26:22;;;;;;;5.60;2.30;;;;;;;;;;5003205;28;20150;-72
2022/06/15 14:28:51;;;;;;;6.07;2.15;;;;;;;;;;5017335;28;20353;-73
2022/06/15 14:31:22;;;;;;;5.90;2.38;;;;;;;;;;5020797;28;20047;-76
2022/06/15 14:33:54;;;;;;;4.50;2.13;;;;;;;;;;5025070;28;20095;-73
2022/06/15 14:36:21;;;;;;;4.90;1.98;;;;;;;;;;5018652;28;20029;-75
2022/06/15 14:38:55;;;;;;;8.73;2.30;;;;;;;;;;5018699;28;20052;-71
2022/06/15 14:41:28;;;;;;;7.90;2.47;;;;;;;;;;5014643;28;20033;-77
2022/06/15 14:43:54;;;;;;;4.07;2.05;;;;;;;;;;5008734;28;20488;-84
2022/06/15 14:46:40;;;;;;;4.82;2.00;;;;;;;;;;5013389;28;20499;-84
2022/06/15 14:49:08;;;;;;;5.68;2.45;;;;;;;;;;4999801;28;20116;-76
2022/06/15 14:51:35;;;;;;;4.93;1.90;;;;;;;;;;5013848;28;20041;-78
2022/06/15 14:54:04;;;;;;;7.00;2.30;;;;;;;;;;5015809;28;20030;-77
2022/06/15 14:56:35;;;;;;;15.77;2.22;;;;;;;;;;5011162;28;20400;-78
2022/06/15 14:59:05;;;;;;;3.55;1.98;;;;;;;;;;5007456;28;20096;-81
2022/06/15 15:01:32;;;;;;;6.03;2.20;;;;;;;;;;5012762;28;20037;-80
2022/06/15 15:04:17;;;;;;;5.32;2.17;;;;;;;;;;5011896;28;20026;-76
2022/06/15 15:06:50;;;;;;;5.88;1.95;;;;;;;;;;5012027;28;20219;-75
2022/06/15 15:09:16;;;;;;;6.72;2.28;;;;;;;;;;5014991;28;20109;-75
2022/06/15 15:11:43;;;;;;;6.00;2.30;;;;;;;;;;5012824;28;20030;-76
2022/06/15 15:14:12;;;;;;;4.68;2.10;;;;;;;;;;5004815;28;20030;-79
2022/06/15 15:16:43;;;;;;;7.90;2.30;;;;;;;;;;5002640;28;20042;-77